createdAt,value
2023-05-02T00:00:15.516Z,94831.00
2023-05-02T00:01:15.566Z,94829.00
2023-05-02T00:02:15.645Z,94831.00
2023-05-02T00:03:15.681Z,94833.00
2023-05-02T00:04:15.704Z,94831.00
2023-05-02T00:05:15.642Z,94833.00
2023-05-02T00:06:15.666Z,94829.00
2023-05-02T00:07:15.649Z,94831.00
2023-05-02T00:08:15.713Z,94829.00
2023-05-02T00:09:15.734Z,94827.00
2023-05-02T00:10:15.763Z,94827.00
2023-05-02T00:11:15.774Z,94829.00
2023-05-02T00:12:15.800Z,94831.00
2023-05-02T00:13:15.803Z,94829.00
2023-05-02T00:14:15.833Z,94825.00
2023-05-02T00:15:15.860Z,94825.00
2023-05-02T00:16:15.908Z,94823.00
2023-05-02T00:17:15.949Z,94821.00
2023-05-02T00:18:15.939Z,94823.00
2023-05-02T00:19:15.915Z,94825.00
2023-05-02T00:20:15.988Z,94825.00
2023-05-02T00:21:16.038Z,94821.00
2023-05-02T00:22:16.051Z,94821.00
2023-05-02T00:23:16.060Z,94819.00
2023-05-02T00:24:16.106Z,94823.00
2023-05-02T00:25:16.178Z,94825.00
2023-05-02T00:26:16.191Z,94821.00
2023-05-02T00:27:16.228Z,94821.00
2023-05-02T00:28:16.271Z,94819.00
2023-05-02T00:29:16.295Z,94819.00
2023-05-02T00:30:16.368Z,94819.00
2023-05-02T00:31:16.398Z,94819.00
2023-05-02T00:32:16.385Z,94815.00
2023-05-02T00:33:16.478Z,94817.00
2023-05-02T00:34:16.510Z,94819.00
2023-05-02T00:35:16.524Z,94817.00
2023-05-02T00:36:16.541Z,94817.00
2023-05-02T00:37:16.565Z,94815.00
2023-05-02T00:38:16.579Z,94815.00
2023-05-02T00:39:16.615Z,94815.00
2023-05-02T00:40:16.644Z,94817.00
2023-05-02T00:41:16.617Z,94817.00
2023-05-02T00:42:16.670Z,94817.00
2023-05-02T00:43:16.721Z,94815.00
2023-05-02T00:44:16.680Z,94817.00
2023-05-02T00:45:16.689Z,94819.00
2023-05-02T00:46:16.714Z,94819.00
2023-05-02T00:47:16.771Z,94821.00
2023-05-02T00:48:16.849Z,94819.00
2023-05-02T00:49:16.812Z,94817.00
2023-05-02T00:50:16.853Z,94817.00
2023-05-02T00:51:16.879Z,94817.00
2023-05-02T00:52:16.952Z,94815.00
2023-05-02T00:53:16.944Z,94819.00
2023-05-02T00:54:16.905Z,94813.00
2023-05-02T00:55:16.974Z,94813.00
2023-05-02T00:56:16.998Z,94815.00
2023-05-02T00:57:17.103Z,94819.00
2023-05-02T00:58:17.100Z,94819.00
2023-05-02T00:59:17.164Z,94817.00
2023-05-02T01:00:17.207Z,94815.00
2023-05-02T01:01:17.319Z,94819.00
2023-05-02T01:02:17.306Z,94821.00
2023-05-02T01:03:17.450Z,94821.00
2023-05-02T01:04:17.492Z,94819.00
2023-05-02T01:05:17.390Z,94823.00
2023-05-02T01:06:17.475Z,94821.00
2023-05-02T01:07:17.432Z,94823.00
2023-05-02T01:08:17.446Z,94827.00
2023-05-02T01:09:17.556Z,94827.00
2023-05-02T01:10:17.552Z,94829.00
2023-05-02T01:11:17.569Z,94827.00
2023-05-02T01:12:17.628Z,94829.00
2023-05-02T01:13:17.671Z,94829.00
2023-05-02T01:14:17.718Z,94825.00
2023-05-02T01:15:17.785Z,94827.00
2023-05-02T01:16:17.811Z,94829.00
2023-05-02T01:17:17.816Z,94829.00
2023-05-02T01:18:17.846Z,94829.00
2023-05-02T01:19:17.837Z,94831.00
2023-05-02T01:20:17.890Z,94829.00
2023-05-02T01:21:17.938Z,94831.00
2023-05-02T01:22:17.957Z,94829.00
2023-05-02T01:23:17.964Z,94833.00
2023-05-02T01:24:18.072Z,94834.00
2023-05-02T01:25:18.068Z,94834.00
2023-05-02T01:26:18.127Z,94833.00
2023-05-02T01:27:18.136Z,94834.00
2023-05-02T01:28:18.156Z,94834.00
2023-05-02T01:29:18.145Z,94838.00
2023-05-02T01:30:18.162Z,94838.00
2023-05-02T01:31:18.230Z,94838.00
2023-05-02T01:32:18.204Z,94838.00
2023-05-02T01:33:18.221Z,94840.00
2023-05-02T01:34:18.279Z,94840.00
2023-05-02T01:35:18.336Z,94840.00
2023-05-02T01:36:18.390Z,94840.00
2023-05-02T01:37:18.380Z,94840.00
2023-05-02T01:38:18.416Z,94840.00
2023-05-02T01:39:18.450Z,94840.00
2023-05-02T01:40:18.455Z,94844.00
2023-05-02T01:41:18.455Z,94844.00
2023-05-02T01:42:18.510Z,94844.00
2023-05-02T01:43:18.528Z,94846.00
2023-05-02T01:44:18.550Z,94840.00
2023-05-02T01:45:18.609Z,94844.00
2023-05-02T01:46:18.653Z,94844.00
2023-05-02T01:47:18.713Z,94840.00
2023-05-02T01:48:18.715Z,94840.00
2023-05-02T01:49:18.710Z,94840.00
2023-05-02T01:50:18.792Z,94842.00
2023-05-02T01:51:18.881Z,94838.00
2023-05-02T01:52:18.884Z,94842.00
2023-05-02T01:53:18.932Z,94844.00
2023-05-02T01:54:18.941Z,94844.00
2023-05-02T01:55:18.992Z,94846.00
2023-05-02T01:56:19.012Z,94846.00
2023-05-02T01:57:19.018Z,94846.00
2023-05-02T01:58:19.052Z,94846.00
2023-05-02T01:59:19.056Z,94850.00
2023-05-02T02:00:19.064Z,94848.00
2023-05-02T02:01:19.112Z,94850.00
2023-05-02T02:02:19.089Z,94850.00
2023-05-02T02:03:19.201Z,94846.00
2023-05-02T02:04:19.205Z,94848.00
2023-05-02T02:05:19.198Z,94850.00
2023-05-02T02:06:19.225Z,94848.00
2023-05-02T02:07:19.200Z,94850.00
2023-05-02T02:08:19.317Z,94850.00
2023-05-02T02:09:19.348Z,94850.00
2023-05-02T02:10:19.395Z,94850.00
2023-05-02T02:11:19.408Z,94852.00
2023-05-02T02:12:19.455Z,94848.00
2023-05-02T02:13:19.489Z,94848.00
2023-05-02T02:14:19.476Z,94846.00
2023-05-02T02:15:19.541Z,94848.00
2023-05-02T02:16:19.616Z,94848.00
2023-05-02T02:17:19.534Z,94846.00
2023-05-02T02:18:19.575Z,94846.00
2023-05-02T02:19:19.593Z,94848.00
2023-05-02T02:20:19.589Z,94848.00
2023-05-02T02:21:19.610Z,94848.00
2023-05-02T02:22:19.615Z,94848.00
2023-05-02T02:23:19.657Z,94848.00
2023-05-02T02:24:19.674Z,94850.00
2023-05-02T02:25:19.758Z,94852.00
2023-05-02T02:26:19.761Z,94850.00
2023-05-02T02:27:19.777Z,94850.00
2023-05-02T02:28:19.786Z,94850.00
2023-05-02T02:29:19.809Z,94852.00
2023-05-02T02:30:19.830Z,94852.00
2023-05-02T02:31:19.887Z,94852.00
2023-05-02T02:32:19.829Z,94856.00
2023-05-02T02:33:19.889Z,94856.00
2023-05-02T02:34:19.945Z,94852.00
2023-05-02T02:35:19.939Z,94852.00
2023-05-02T02:36:19.934Z,94854.00
2023-05-02T02:37:19.953Z,94856.00
2023-05-02T02:38:19.964Z,94858.00
2023-05-02T02:39:20.030Z,94852.00
2023-05-02T02:40:20.031Z,94854.00
2023-05-02T02:41:20.032Z,94854.00
2023-05-02T02:42:20.041Z,94856.00
2023-05-02T02:43:20.052Z,94858.00
2023-05-02T02:44:20.077Z,94858.00
2023-05-02T02:45:20.155Z,94862.00
2023-05-02T02:46:20.219Z,94858.00
2023-05-02T02:47:20.208Z,94860.00
2023-05-02T02:48:20.322Z,94862.00
2023-05-02T02:49:20.279Z,94860.00
2023-05-02T02:50:20.355Z,94864.00
2023-05-02T02:51:20.402Z,94866.00
2023-05-02T02:52:20.432Z,94864.00
2023-05-02T02:53:20.497Z,94864.00
2023-05-02T02:54:26.406Z,94860.00
2023-05-02T02:55:21.477Z,94862.00
2023-05-02T02:56:20.472Z,94862.00
2023-05-02T02:57:20.465Z,94862.00
2023-05-02T02:58:20.494Z,94864.00
2023-05-02T02:59:20.485Z,94862.00
2023-05-02T03:00:20.453Z,94864.00
2023-05-02T03:01:20.532Z,94862.00
2023-05-02T03:02:20.437Z,94864.00
2023-05-02T03:03:20.556Z,94866.00
2023-05-02T03:04:20.524Z,94866.00
2023-05-02T03:05:20.430Z,94866.00
2023-05-02T03:06:20.421Z,94862.00
2023-05-02T03:07:20.435Z,94868.00
2023-05-02T03:08:20.441Z,94868.00
2023-05-02T03:09:20.484Z,94868.00
2023-05-02T03:10:20.461Z,94868.00
2023-05-02T03:11:20.483Z,94868.00
2023-05-02T03:12:20.524Z,94868.00
2023-05-02T03:13:20.574Z,94866.00
2023-05-02T03:14:20.550Z,94870.00
2023-05-02T03:15:20.574Z,94870.00
2023-05-02T03:16:20.689Z,94870.00
2023-05-02T03:17:20.669Z,94868.00
2023-05-02T03:18:20.722Z,94868.00
2023-05-02T03:19:20.740Z,94868.00
2023-05-02T03:20:20.753Z,94866.00
2023-05-02T03:21:20.806Z,94868.00
2023-05-02T03:22:20.849Z,94868.00
2023-05-02T03:23:20.936Z,94868.00
2023-05-02T03:24:20.837Z,94872.00
2023-05-02T03:25:20.913Z,94872.00
2023-05-02T03:26:20.918Z,94872.00
2023-05-02T03:27:20.961Z,94876.00
2023-05-02T03:28:21.046Z,94874.00
2023-05-02T03:29:21.048Z,94876.00
2023-05-02T03:30:21.086Z,94876.00
2023-05-02T03:31:21.086Z,94874.00
2023-05-02T03:32:21.181Z,94876.00
2023-05-02T03:33:21.109Z,94876.00
2023-05-02T03:34:21.182Z,94874.00
2023-05-02T03:35:21.191Z,94876.00
2023-05-02T03:36:21.224Z,94878.00
2023-05-02T03:37:21.193Z,94880.00
2023-05-02T03:38:21.266Z,94880.00
2023-05-02T03:39:21.305Z,94887.00
2023-05-02T03:40:21.336Z,94887.00
2023-05-02T03:41:21.402Z,94887.00
2023-05-02T03:42:21.403Z,94891.00
2023-05-02T03:43:21.437Z,94891.00
2023-05-02T03:44:21.462Z,94893.00
2023-05-02T03:45:21.498Z,94893.00
2023-05-02T03:46:21.527Z,94895.00
2023-05-02T03:47:21.573Z,94897.00
2023-05-02T03:48:21.641Z,94897.00
2023-05-02T03:49:21.674Z,94891.00
2023-05-02T03:50:21.723Z,94893.00
2023-05-02T03:51:21.798Z,94895.00
2023-05-02T03:52:21.867Z,94893.00
2023-05-02T03:53:21.884Z,94897.00
2023-05-02T03:54:21.922Z,94897.00
2023-05-02T03:55:21.981Z,94897.00
2023-05-02T03:56:22.045Z,94897.00
2023-05-02T03:57:22.075Z,94899.00
2023-05-02T03:58:22.082Z,94897.00
2023-05-02T03:59:22.164Z,94899.00
2023-05-02T04:00:22.160Z,94901.00
2023-05-02T04:01:22.177Z,94899.00
2023-05-02T04:02:22.298Z,94903.00
2023-05-02T04:03:22.308Z,94905.00
2023-05-02T04:04:22.352Z,94903.00
2023-05-02T04:05:22.296Z,94907.00
2023-05-02T04:06:22.377Z,94905.00
2023-05-02T04:07:22.435Z,94907.00
2023-05-02T04:08:22.454Z,94909.00
2023-05-02T04:09:22.497Z,94909.00
2023-05-02T04:10:22.533Z,94911.00
2023-05-02T04:11:22.599Z,94915.00
2023-05-02T04:12:22.584Z,94913.00
2023-05-02T04:13:22.584Z,94915.00
2023-05-02T04:14:22.657Z,94917.00
2023-05-02T04:15:22.628Z,94915.00
2023-05-02T04:16:22.732Z,94917.00
2023-05-02T04:17:22.679Z,94915.00
2023-05-02T04:18:22.726Z,94919.00
2023-05-02T04:19:22.713Z,94917.00
2023-05-02T04:20:22.722Z,94919.00
2023-05-02T04:21:22.758Z,94921.00
2023-05-02T04:22:22.803Z,94925.00
2023-05-02T04:23:22.825Z,94923.00
2023-05-02T04:24:22.886Z,94921.00
2023-05-02T04:25:22.892Z,94921.00
2023-05-02T04:26:22.869Z,94925.00
2023-05-02T04:27:22.971Z,94927.00
2023-05-02T04:28:22.912Z,94927.00
2023-05-02T04:29:22.948Z,94931.00
2023-05-02T04:30:23.006Z,94933.00
2023-05-02T04:31:23.016Z,94933.00
2023-05-02T04:32:23.014Z,94929.00
2023-05-02T04:33:23.002Z,94931.00
2023-05-02T04:34:23.045Z,94933.00
2023-05-02T04:35:23.038Z,94934.00
2023-05-02T04:36:23.078Z,94933.00
2023-05-02T04:37:23.122Z,94936.00
2023-05-02T04:38:23.084Z,94936.00
2023-05-02T04:39:23.112Z,94938.00
2023-05-02T04:40:23.184Z,94940.00
2023-05-02T04:41:23.231Z,94942.00
2023-05-02T04:42:23.246Z,94942.00
2023-05-02T04:43:24.564Z,94944.00
2023-05-02T04:44:23.286Z,94944.00
2023-05-02T04:45:23.361Z,94944.00
2023-05-02T04:46:23.410Z,94946.00
2023-05-02T04:47:23.476Z,94950.00
2023-05-02T04:48:23.425Z,94948.00
2023-05-02T04:49:23.457Z,94948.00
2023-05-02T04:50:23.467Z,94950.00
2023-05-02T04:51:23.537Z,94952.00
2023-05-02T04:52:23.577Z,94952.00
2023-05-02T04:53:23.644Z,94952.00
2023-05-02T04:54:23.648Z,94954.00
2023-05-02T04:55:23.742Z,94956.00
2023-05-02T04:56:23.728Z,94954.00
2023-05-02T04:57:23.788Z,94954.00
2023-05-02T04:58:23.871Z,94956.00
2023-05-02T04:59:23.857Z,94958.00
2023-05-02T05:00:23.898Z,94962.00
2023-05-02T05:01:23.956Z,94962.00
2023-05-02T05:02:24.047Z,94962.00
2023-05-02T05:03:24.051Z,94964.00
2023-05-02T05:04:24.093Z,94966.00
2023-05-02T05:05:24.159Z,94962.00
2023-05-02T05:06:24.121Z,94966.00
2023-05-02T05:07:24.127Z,94964.00
2023-05-02T05:08:24.169Z,94968.00
2023-05-02T05:09:24.216Z,94968.00
2023-05-02T05:10:24.286Z,94972.00
2023-05-02T05:11:24.300Z,94972.00
2023-05-02T05:12:24.370Z,94974.00
2023-05-02T05:13:24.382Z,94972.00
2023-05-02T05:14:24.481Z,94974.00
2023-05-02T05:15:24.484Z,94974.00
2023-05-02T05:16:24.598Z,94978.00
2023-05-02T05:17:24.569Z,94980.00
2023-05-02T05:18:24.607Z,94982.00
2023-05-02T05:19:24.628Z,94978.00
2023-05-02T05:20:24.714Z,94980.00
2023-05-02T05:21:24.720Z,94980.00
2023-05-02T05:22:24.755Z,94982.00
2023-05-02T05:23:24.748Z,94980.00
2023-05-02T05:24:24.775Z,94982.00
2023-05-02T05:25:24.794Z,94987.00
2023-05-02T05:26:24.838Z,94985.00
2023-05-02T05:27:24.900Z,94985.00
2023-05-02T05:28:24.934Z,94987.00
2023-05-02T05:29:24.970Z,94989.00
2023-05-02T05:30:24.934Z,94991.00
2023-05-02T05:31:25.003Z,94987.00
2023-05-02T05:32:25.026Z,94987.00
2023-05-02T05:33:25.141Z,94991.00
2023-05-02T05:34:25.084Z,94993.00
2023-05-02T05:35:25.079Z,94993.00
2023-05-02T05:36:25.109Z,94991.00
2023-05-02T05:37:25.148Z,94997.00
2023-05-02T05:38:25.243Z,94995.00
2023-05-02T05:39:25.271Z,95001.00
2023-05-02T05:40:25.341Z,94999.00
2023-05-02T05:41:25.362Z,94999.00
2023-05-02T05:42:25.391Z,95001.00
2023-05-02T05:43:25.421Z,95003.00
2023-05-02T05:44:25.543Z,95005.00
2023-05-02T05:45:25.492Z,95007.00
2023-05-02T05:46:25.578Z,95007.00
2023-05-02T05:47:25.717Z,95007.00
2023-05-02T05:48:25.601Z,95013.00
2023-05-02T05:49:25.613Z,95009.00
2023-05-02T05:50:25.619Z,95011.00
2023-05-02T05:51:25.652Z,95011.00
2023-05-02T05:52:25.704Z,95013.00
2023-05-02T05:53:25.759Z,95015.00
2023-05-02T05:54:25.744Z,95015.00
2023-05-02T05:55:25.738Z,95017.00
2023-05-02T05:56:25.754Z,95017.00
2023-05-02T05:57:25.795Z,95017.00
2023-05-02T05:58:25.815Z,95017.00
2023-05-02T05:59:25.815Z,95015.00
2023-05-02T06:00:25.837Z,95019.00
2023-05-02T06:01:25.876Z,95019.00
2023-05-02T06:02:25.972Z,95021.00
2023-05-02T06:03:25.987Z,95021.00
2023-05-02T06:04:25.914Z,95019.00
2023-05-02T06:05:25.931Z,95021.00
2023-05-02T06:06:25.990Z,95019.00
2023-05-02T06:07:25.962Z,95023.00
2023-05-02T06:08:25.954Z,95025.00
2023-05-02T06:09:26.440Z,95025.00
2023-05-02T06:10:25.991Z,95023.00
2023-05-02T06:11:26.013Z,95027.00
2023-05-02T06:12:26.061Z,95029.00
2023-05-02T06:13:26.109Z,95033.00
2023-05-02T06:14:26.102Z,95033.00
2023-05-02T06:15:26.142Z,95033.00
2023-05-02T06:16:26.213Z,95035.00
2023-05-02T06:17:26.279Z,95036.00
2023-05-02T06:18:26.216Z,95040.00
2023-05-02T06:19:26.261Z,95040.00
2023-05-02T06:20:26.253Z,95042.00
2023-05-02T06:21:26.286Z,95042.00
2023-05-02T06:22:26.343Z,95044.00
2023-05-02T06:23:26.340Z,95044.00
2023-05-02T06:24:26.349Z,95046.00
2023-05-02T06:25:26.392Z,95048.00
2023-05-02T06:26:26.432Z,95046.00
2023-05-02T06:27:27.040Z,95048.00
2023-05-02T06:28:26.471Z,95048.00
2023-05-02T06:29:26.461Z,95050.00
2023-05-02T06:30:26.493Z,95052.00
2023-05-02T06:31:26.573Z,95052.00
2023-05-02T06:32:26.603Z,95052.00
2023-05-02T06:33:26.619Z,95050.00
2023-05-02T06:34:26.617Z,95054.00
2023-05-02T06:35:26.654Z,95054.00
2023-05-02T06:36:26.691Z,95060.00
2023-05-02T06:37:26.984Z,95058.00
2023-05-02T06:38:26.944Z,95060.00
2023-05-02T06:39:26.969Z,95062.00
2023-05-02T06:40:27.028Z,95058.00
2023-05-02T06:41:26.924Z,95058.00
2023-05-02T06:42:26.962Z,95060.00
2023-05-02T06:43:26.972Z,95062.00
2023-05-02T06:44:26.882Z,95062.00
2023-05-02T06:45:26.869Z,95062.00
2023-05-02T06:46:27.019Z,95064.00
2023-05-02T06:47:26.997Z,95064.00
2023-05-02T06:48:27.002Z,95064.00
2023-05-02T06:49:27.050Z,95066.00
2023-05-02T06:50:27.084Z,95066.00
2023-05-02T06:51:27.130Z,95068.00
2023-05-02T06:52:27.164Z,95068.00
2023-05-02T06:53:27.177Z,95068.00
2023-05-02T06:54:27.208Z,95068.00
2023-05-02T06:55:27.251Z,95072.00
2023-05-02T06:56:27.248Z,95070.00
2023-05-02T06:57:27.322Z,95074.00
2023-05-02T06:58:27.298Z,95070.00
2023-05-02T06:59:27.402Z,95072.00
2023-05-02T07:00:27.408Z,95074.00
2023-05-02T07:01:27.501Z,95078.00
2023-05-02T07:02:27.527Z,95076.00
2023-05-02T07:03:27.508Z,95078.00
2023-05-02T07:04:27.594Z,95080.00
2023-05-02T07:05:27.557Z,95078.00
2023-05-02T07:06:27.637Z,95078.00
2023-05-02T07:07:27.575Z,95080.00
2023-05-02T07:08:27.599Z,95080.00
2023-05-02T07:09:27.608Z,95078.00
2023-05-02T07:10:27.992Z,95078.00
2023-05-02T07:11:27.664Z,95082.00
2023-05-02T07:12:27.964Z,95080.00
2023-05-02T07:13:27.757Z,95082.00
2023-05-02T07:14:27.948Z,95082.00
2023-05-02T07:15:27.979Z,95083.00
2023-05-02T07:16:27.996Z,95083.00
2023-05-02T07:17:28.000Z,95085.00
2023-05-02T07:18:27.906Z,95085.00
2023-05-02T07:19:27.973Z,95085.00
2023-05-02T07:20:27.969Z,95087.00
2023-05-02T07:21:28.475Z,95085.00
2023-05-02T07:22:28.505Z,95087.00
2023-05-02T07:23:28.484Z,95087.00
2023-05-02T07:24:28.499Z,95087.00
2023-05-02T07:25:28.488Z,95089.00
2023-05-02T07:26:28.496Z,95089.00
2023-05-02T07:27:28.208Z,95087.00
2023-05-02T07:28:28.479Z,95089.00
2023-05-02T07:29:28.275Z,95091.00
2023-05-02T07:30:28.501Z,95093.00
2023-05-02T07:31:28.331Z,95093.00
2023-05-02T07:32:28.425Z,95089.00
2023-05-02T07:33:28.336Z,95093.00
2023-05-02T07:34:28.406Z,95091.00
2023-05-02T07:35:28.424Z,95091.00
2023-05-02T07:36:28.543Z,95093.00
2023-05-02T07:37:28.490Z,95093.00
2023-05-02T07:38:28.584Z,95095.00
2023-05-02T07:39:28.596Z,95095.00
2023-05-02T07:40:28.699Z,95097.00
2023-05-02T07:41:28.704Z,95093.00
2023-05-02T07:42:28.675Z,95093.00
2023-05-02T07:43:28.743Z,95095.00
2023-05-02T07:44:28.747Z,95095.00
2023-05-02T07:45:29.490Z,95091.00
2023-05-02T07:46:28.859Z,95095.00
2023-05-02T07:47:28.900Z,95095.00
2023-05-02T07:48:28.971Z,95095.00
2023-05-02T07:49:28.924Z,95093.00
2023-05-02T07:50:28.929Z,95097.00
2023-05-02T07:51:29.028Z,95097.00
2023-05-02T07:52:28.998Z,95097.00
2023-05-02T07:53:29.480Z,95099.00
2023-05-02T07:54:29.057Z,95099.00
2023-05-02T07:55:29.116Z,95103.00
2023-05-02T07:56:29.128Z,95101.00
2023-05-02T07:57:29.173Z,95101.00
2023-05-02T07:58:29.457Z,95099.00
2023-05-02T07:59:29.233Z,95103.00
2023-05-02T08:00:29.481Z,95105.00
2023-05-02T08:01:29.269Z,95107.00
2023-05-02T08:02:29.462Z,95103.00
2023-05-02T08:03:29.616Z,95109.00
2023-05-02T08:04:29.410Z,95109.00
2023-05-02T08:05:29.359Z,95113.00
2023-05-02T08:06:29.406Z,95111.00
2023-05-02T08:07:29.474Z,95111.00
2023-05-02T08:08:29.373Z,95113.00
2023-05-02T08:09:29.456Z,95117.00
2023-05-02T08:10:29.460Z,95119.00
2023-05-02T08:11:29.504Z,95117.00
2023-05-02T08:12:30.010Z,95119.00
2023-05-02T08:13:29.585Z,95117.00
2023-05-02T08:14:29.636Z,95119.00
2023-05-02T08:15:29.662Z,95117.00
2023-05-02T08:16:29.770Z,95121.00
2023-05-02T08:17:29.725Z,95123.00
2023-05-02T08:18:29.744Z,95123.00
2023-05-02T08:19:29.795Z,95125.00
2023-05-02T08:20:29.808Z,95127.00
2023-05-02T08:21:29.841Z,95127.00
2023-05-02T08:22:30.050Z,95129.00
2023-05-02T08:23:29.888Z,95129.00
2023-05-02T08:24:29.983Z,95130.00
2023-05-02T08:25:29.969Z,95130.00
2023-05-02T08:26:29.980Z,95127.00
2023-05-02T08:27:29.994Z,95127.00
2023-05-02T08:28:31.725Z,95129.00
2023-05-02T08:29:30.496Z,95127.00
2023-05-02T08:30:30.067Z,95125.00
2023-05-02T08:31:30.176Z,95130.00
2023-05-02T08:32:30.288Z,95127.00
2023-05-02T08:33:30.177Z,95127.00
2023-05-02T08:34:30.236Z,95127.00
2023-05-02T08:35:30.197Z,95119.00
2023-05-02T08:36:30.270Z,95125.00
2023-05-02T08:37:30.281Z,95129.00
2023-05-02T08:38:30.252Z,95123.00
2023-05-02T08:39:30.312Z,95119.00
2023-05-02T08:40:40.928Z,95123.00
2023-05-02T08:41:31.319Z,95127.00
2023-05-02T08:42:30.324Z,95127.00
2023-05-02T08:43:30.505Z,95127.00
2023-05-02T08:44:30.284Z,95130.00
2023-05-02T08:45:30.288Z,95130.00
2023-05-02T08:46:30.333Z,95130.00
2023-05-02T08:47:30.317Z,95134.00
2023-05-02T08:48:30.250Z,95134.00
2023-05-02T08:49:30.253Z,95136.00
2023-05-02T08:50:30.264Z,95144.00
2023-05-02T08:51:30.227Z,95150.00
2023-05-02T08:52:30.243Z,95146.00
2023-05-02T08:53:30.479Z,95148.00
2023-05-02T08:54:30.249Z,95148.00
2023-05-02T08:55:30.253Z,95146.00
2023-05-02T08:56:30.258Z,95148.00
2023-05-02T08:57:30.312Z,95150.00
2023-05-02T08:58:30.368Z,95148.00
2023-05-02T08:59:30.379Z,95150.00
2023-05-02T09:00:30.427Z,95148.00
2023-05-02T09:01:30.564Z,95150.00
2023-05-02T09:02:30.505Z,95152.00
2023-05-02T09:03:31.031Z,95152.00
2023-05-02T09:04:30.675Z,95156.00
2023-05-02T09:05:30.625Z,95156.00
2023-05-02T09:06:30.679Z,95156.00
2023-05-02T09:07:30.685Z,95158.00
2023-05-02T09:08:30.740Z,95156.00
2023-05-02T09:09:30.741Z,95160.00
2023-05-02T09:10:30.750Z,95158.00
2023-05-02T09:11:30.761Z,95158.00
2023-05-02T09:12:30.795Z,95158.00
2023-05-02T09:13:30.889Z,95158.00
2023-05-02T09:14:30.882Z,95156.00
2023-05-02T09:15:30.883Z,95156.00
2023-05-02T09:16:31.000Z,95156.00
2023-05-02T09:17:30.998Z,95158.00
2023-05-02T09:18:31.042Z,95160.00
2023-05-02T09:19:31.034Z,95160.00
2023-05-02T09:20:31.049Z,95158.00
2023-05-02T09:21:31.495Z,95160.00
2023-05-02T09:22:31.131Z,95162.00
2023-05-02T09:23:31.366Z,95158.00
2023-05-02T09:24:31.216Z,95158.00
2023-05-02T09:25:31.254Z,95160.00
2023-05-02T09:26:31.908Z,95162.00
2023-05-02T09:27:31.338Z,95160.00
2023-05-02T09:28:31.964Z,95162.00
2023-05-02T09:29:31.498Z,95162.00
2023-05-02T09:30:31.496Z,95162.00
2023-05-02T09:31:49.468Z,95162.00
2023-05-02T09:32:32.560Z,95164.00
2023-05-02T09:33:31.507Z,95166.00
2023-05-02T09:34:31.442Z,95166.00
2023-05-02T09:35:31.523Z,95164.00
2023-05-02T09:36:31.374Z,95164.00
2023-05-02T09:37:31.383Z,95162.00
2023-05-02T09:38:31.427Z,95162.00
2023-05-02T09:39:31.381Z,95162.00
2023-05-02T09:40:31.487Z,95164.00
2023-05-02T09:41:31.996Z,95164.00
2023-05-02T09:42:31.493Z,95164.00
2023-05-02T09:43:31.523Z,95166.00
2023-05-02T09:44:32.847Z,95164.00
2023-05-02T09:45:31.485Z,95166.00
2023-05-02T09:46:31.357Z,95162.00
2023-05-02T09:47:31.426Z,95164.00
2023-05-02T09:48:31.513Z,95164.00
2023-05-02T09:49:31.440Z,95164.00
2023-05-02T09:50:32.933Z,95164.00
2023-05-02T09:51:31.531Z,95164.00
2023-05-02T09:52:31.577Z,95162.00
2023-05-02T09:53:31.552Z,95164.00
2023-05-02T09:54:31.593Z,95162.00
2023-05-02T09:55:32.002Z,95162.00
2023-05-02T09:56:31.697Z,95166.00
2023-05-02T09:57:31.699Z,95164.00
2023-05-02T09:58:31.717Z,95166.00
2023-05-02T09:59:31.744Z,95164.00
2023-05-02T10:00:31.800Z,95164.00
2023-05-02T10:01:31.861Z,95162.00
2023-05-02T10:02:31.877Z,95158.00
2023-05-02T10:03:31.856Z,95162.00
2023-05-02T10:04:32.097Z,95160.00
2023-05-02T10:05:31.937Z,95160.00
2023-05-02T10:06:31.946Z,95160.00
2023-05-02T10:07:31.979Z,95160.00
2023-05-02T10:08:31.994Z,95164.00
2023-05-02T10:09:32.003Z,95158.00
2023-05-02T10:10:32.037Z,95164.00
2023-05-02T10:11:32.062Z,95162.00
2023-05-02T10:12:32.116Z,95158.00
2023-05-02T10:13:32.106Z,95160.00
2023-05-02T10:14:32.106Z,95158.00
2023-05-02T10:15:32.192Z,95158.00
2023-05-02T10:16:32.396Z,95162.00
2023-05-02T10:17:32.335Z,95162.00
2023-05-02T10:18:32.307Z,95162.00
2023-05-02T10:19:32.321Z,95160.00
2023-05-02T10:20:32.365Z,95156.00
2023-05-02T10:21:32.386Z,95156.00
2023-05-02T10:22:32.429Z,95160.00
2023-05-02T10:23:32.504Z,95158.00
2023-05-02T10:24:32.514Z,95158.00
2023-05-02T10:25:32.568Z,95158.00
2023-05-02T10:26:33.027Z,95158.00
2023-05-02T10:27:33.194Z,95156.00
2023-05-02T10:28:32.679Z,95160.00
2023-05-02T10:29:32.693Z,95154.00
2023-05-02T10:30:32.703Z,95154.00
2023-05-02T10:31:32.768Z,95152.00
2023-05-02T10:32:33.095Z,95154.00
2023-05-02T10:33:32.740Z,95150.00
2023-05-02T10:34:32.828Z,95152.00
2023-05-02T10:35:32.828Z,95152.00
2023-05-02T10:36:32.868Z,95150.00
2023-05-02T10:37:32.887Z,95150.00
2023-05-02T10:38:32.901Z,95146.00
2023-05-02T10:39:32.987Z,95136.00
2023-05-02T10:40:33.008Z,95144.00
2023-05-02T10:41:33.096Z,95146.00
2023-05-02T10:42:33.070Z,95144.00
2023-05-02T10:43:33.082Z,95136.00
2023-05-02T10:44:33.125Z,95144.00
2023-05-02T10:45:33.114Z,95134.00
2023-05-02T10:46:33.232Z,95130.00
2023-05-02T10:47:33.187Z,95132.00
2023-05-02T10:48:33.214Z,95132.00
2023-05-02T10:49:33.235Z,95127.00
2023-05-02T10:50:33.261Z,95127.00
2023-05-02T10:51:33.304Z,95130.00
2023-05-02T10:52:33.337Z,95125.00
2023-05-02T10:53:33.405Z,95127.00
2023-05-02T10:54:33.375Z,95123.00
2023-05-02T10:55:33.446Z,95129.00
2023-05-02T10:56:33.465Z,95125.00
2023-05-02T10:57:33.467Z,95127.00
2023-05-02T10:58:33.484Z,95125.00
2023-05-02T10:59:33.541Z,95119.00
2023-05-02T11:00:33.656Z,95121.00
2023-05-02T11:01:33.680Z,95119.00
2023-05-02T11:02:33.695Z,95119.00
2023-05-02T11:03:33.692Z,95115.00
2023-05-02T11:04:33.711Z,95117.00
2023-05-02T11:05:33.730Z,95115.00
2023-05-02T11:06:33.809Z,95115.00
2023-05-02T11:07:33.779Z,95117.00
2023-05-02T11:08:33.806Z,95119.00
2023-05-02T11:09:33.851Z,95117.00
2023-05-02T11:10:33.871Z,95117.00
2023-05-02T11:11:33.895Z,95115.00
2023-05-02T11:12:33.945Z,95117.00
2023-05-02T11:13:34.023Z,95119.00
2023-05-02T11:14:33.993Z,95123.00
2023-05-02T11:15:34.028Z,95117.00
2023-05-02T11:16:34.154Z,95117.00
2023-05-02T11:17:34.135Z,95115.00
2023-05-02T11:18:34.164Z,95117.00
2023-05-02T11:19:34.182Z,95115.00
2023-05-02T11:20:34.191Z,95113.00
2023-05-02T11:21:34.512Z,95115.00
2023-05-02T11:22:34.277Z,95119.00
2023-05-02T11:23:34.576Z,95119.00
2023-05-02T11:24:34.365Z,95113.00
2023-05-02T11:25:34.527Z,95113.00
2023-05-02T11:26:34.375Z,95115.00
2023-05-02T11:27:34.383Z,95113.00
2023-05-02T11:28:34.477Z,95111.00
2023-05-02T11:29:34.487Z,95113.00
2023-05-02T11:30:34.536Z,95113.00
2023-05-02T11:31:34.607Z,95111.00
2023-05-02T11:32:34.731Z,95111.00
2023-05-02T11:33:34.579Z,95107.00
2023-05-02T11:34:34.634Z,95109.00
2023-05-02T11:35:34.683Z,95111.00
2023-05-02T11:36:34.747Z,95111.00
2023-05-02T11:37:34.713Z,95111.00
2023-05-02T11:38:34.772Z,95111.00
2023-05-02T11:39:34.802Z,95109.00
2023-05-02T11:40:34.826Z,95113.00
2023-05-02T11:41:34.837Z,95109.00
2023-05-02T11:42:34.854Z,95109.00
2023-05-02T11:43:34.931Z,95111.00
2023-05-02T11:44:34.926Z,95111.00